createdAt,value
2023-02-09T00:00:22.016Z,80.70
2023-02-09T00:03:12.729Z,80.52
2023-02-09T00:06:03.194Z,80.50
2023-02-09T00:08:52.715Z,80.38
2023-02-09T00:12:07.377Z,80.23
2023-02-09T00:14:56.599Z,80.04
2023-02-09T00:17:45.810Z,80.49
2023-02-09T00:20:36.382Z,80.20
2023-02-09T00:23:26.322Z,79.83
2023-02-09T00:26:15.511Z,80.42
2023-02-09T00:29:06.905Z,80.03
2023-02-09T00:31:56.208Z,80.22
2023-02-09T00:34:45.618Z,80.34
2023-02-09T00:37:37.594Z,80.43
2023-02-09T00:40:26.736Z,80.70
2023-02-09T00:43:16.162Z,80.65
2023-02-09T00:46:05.765Z,80.76
2023-02-09T00:48:55.062Z,80.99
2023-02-09T00:51:44.554Z,80.80
2023-02-09T00:54:35.154Z,80.93
2023-02-09T00:57:24.368Z,81.28
2023-02-09T01:00:16.722Z,81.26
2023-02-09T01:03:06.355Z,81.42
2023-02-09T01:05:55.601Z,81.30
2023-02-09T01:08:44.928Z,80.91
2023-02-09T01:11:35.710Z,81.40
2023-02-09T01:14:24.915Z,81.59
2023-02-09T01:17:14.114Z,81.41
2023-02-09T01:20:06.899Z,81.49
2023-02-09T01:22:56.587Z,81.39
2023-02-09T01:25:45.822Z,81.85
2023-02-09T01:28:37.071Z,81.70
2023-02-09T01:31:29.949Z,81.57
2023-02-09T01:34:20.346Z,81.94
2023-02-09T01:37:10.979Z,81.81
2023-02-09T01:40:00.139Z,81.45
2023-02-09T01:42:49.337Z,81.49
2023-02-09T01:45:48.614Z,82.05
2023-02-09T01:48:38.092Z,81.70
2023-02-09T01:51:29.225Z,81.27
2023-02-09T01:54:24.802Z,81.76
2023-02-09T01:57:21.162Z,81.27
2023-02-09T02:00:14.832Z,81.60
2023-02-09T02:03:10.575Z,81.35
2023-02-09T02:06:06.399Z,81.61
2023-02-09T02:09:00.926Z,81.87
2023-02-09T02:11:51.532Z,81.94
2023-02-09T02:14:41.789Z,82.06
2023-02-09T02:18:05.038Z,82.00
2023-02-09T02:21:42.340Z,82.56
2023-02-09T02:25:13.277Z,82.46
2023-02-09T02:28:25.839Z,82.43
2023-02-09T02:31:58.798Z,82.10
2023-02-09T02:34:55.659Z,81.39
2023-02-09T02:38:01.134Z,80.88
2023-02-09T02:41:00.647Z,81.48
2023-02-09T02:44:02.223Z,81.31
2023-02-09T02:46:58.740Z,81.41
2023-02-09T02:49:54.501Z,81.09
2023-02-09T02:52:49.034Z,81.39
2023-02-09T02:55:40.379Z,80.68
2023-02-09T02:58:30.905Z,80.54
2023-02-09T03:01:26.568Z,80.20
2023-02-09T03:04:18.479Z,80.56
2023-02-09T03:07:08.056Z,80.15
2023-02-09T03:09:58.754Z,80.42
2023-02-09T03:12:59.687Z,79.52
2023-02-09T03:16:09.990Z,79.99
2023-02-09T03:19:13.995Z,79.67
2023-02-09T03:22:14.396Z,79.42
2023-02-09T03:25:09.556Z,79.38
2023-02-09T03:28:07.029Z,78.88
2023-02-09T03:30:58.830Z,79.58
2023-02-09T03:33:48.233Z,78.76
2023-02-09T03:36:39.786Z,79.08
2023-02-09T03:39:30.425Z,78.74
2023-02-09T03:42:19.809Z,78.76
2023-02-09T03:45:09.816Z,78.91
2023-02-09T03:47:59.059Z,78.33
2023-02-09T03:50:48.262Z,78.48
2023-02-09T03:53:38.471Z,78.14
2023-02-09T03:56:29.109Z,78.08
2023-02-09T03:59:18.360Z,77.51
2023-02-09T04:02:10.601Z,76.98
2023-02-09T04:04:59.973Z,77.01
2023-02-09T04:07:49.450Z,76.53
2023-02-09T04:10:38.773Z,76.82
2023-02-09T04:13:29.728Z,76.62
2023-02-09T04:16:19.291Z,76.50
2023-02-09T04:19:09.742Z,76.36
2023-02-09T04:21:59.097Z,76.04
2023-02-09T04:24:51.240Z,76.28
2023-02-09T04:27:40.465Z,76.29
2023-02-09T04:30:31.218Z,76.45
2023-02-09T04:33:20.403Z,75.92
2023-02-09T04:36:11.053Z,76.54
2023-02-09T04:39:00.245Z,76.21
2023-02-09T04:41:49.494Z,76.20
2023-02-09T04:44:38.722Z,76.25
2023-02-09T04:47:29.670Z,75.85
2023-02-09T04:50:19.147Z,76.53
2023-02-09T04:53:08.538Z,76.22
2023-02-09T04:55:57.781Z,76.23
2023-02-09T04:59:04.344Z,75.95
2023-02-09T05:01:53.550Z,75.66
2023-02-09T05:04:44.085Z,76.04
2023-02-09T05:07:33.575Z,75.83
2023-02-09T05:10:22.912Z,75.41
2023-02-09T05:13:12.163Z,75.35
2023-02-09T05:16:01.376Z,75.52
2023-02-09T05:18:51.212Z,75.29
2023-02-09T05:21:41.858Z,75.13
2023-02-09T05:24:31.301Z,75.30
2023-02-09T05:27:20.511Z,75.69
2023-02-09T05:30:11.831Z,74.98
2023-02-09T05:33:01.377Z,75.23
2023-02-09T05:35:51.736Z,75.00
2023-02-09T05:38:42.511Z,74.29
2023-02-09T05:41:48.837Z,74.76
2023-02-09T05:44:38.143Z,74.26
2023-02-09T05:47:27.594Z,74.01
2023-02-09T05:50:17.076Z,74.18
2023-02-09T05:53:06.284Z,73.02
2023-02-09T05:55:56.967Z,73.14
2023-02-09T05:58:46.216Z,72.86
2023-02-09T06:01:35.377Z,72.56
2023-02-09T06:04:24.989Z,72.62
2023-02-09T06:07:14.193Z,72.80
2023-02-09T06:10:03.408Z,72.41
2023-02-09T06:12:54.065Z,72.19
2023-02-09T06:15:43.443Z,71.52
2023-02-09T06:18:32.693Z,71.51
2023-02-09T06:21:21.890Z,70.88
2023-02-09T06:24:11.133Z,70.67
2023-02-09T06:27:00.371Z,71.03
2023-02-09T06:29:50.993Z,70.12
2023-02-09T06:32:40.135Z,69.48
2023-02-09T06:35:29.349Z,71.01
2023-02-09T06:38:18.656Z,69.46
2023-02-09T06:41:08.590Z,70.02
2023-02-09T06:43:58.941Z,70.01
2023-02-09T06:46:49.580Z,69.40
2023-02-09T06:49:38.868Z,69.39
2023-02-09T06:52:28.179Z,68.94
2023-02-09T06:55:18.004Z,68.14
2023-02-09T06:58:07.460Z,67.80
2023-02-09T07:00:56.738Z,68.07
2023-02-09T07:03:47.391Z,68.10
2023-02-09T07:06:36.572Z,67.57
2023-02-09T07:09:25.788Z,67.32
2023-02-09T07:12:14.972Z,66.73
2023-02-09T07:15:04.407Z,66.78
2023-02-09T07:17:53.908Z,66.45
2023-02-09T07:20:44.875Z,65.55
2023-02-09T07:23:34.641Z,65.84
2023-02-09T07:26:23.986Z,65.56
2023-02-09T07:29:13.208Z,64.28
2023-02-09T07:32:02.512Z,64.70
2023-02-09T07:34:52.056Z,63.86
2023-02-09T07:37:42.661Z,63.70
2023-02-09T07:40:31.899Z,63.37
2023-02-09T07:43:21.254Z,62.77
2023-02-09T07:46:11.396Z,63.54
2023-02-09T07:49:01.559Z,63.17
2023-02-09T07:51:50.848Z,63.63
2023-02-09T07:54:41.533Z,62.97
2023-02-09T07:57:33.009Z,63.13
2023-02-09T08:00:22.858Z,62.72
2023-02-09T08:03:12.069Z,62.87
2023-02-09T08:06:06.892Z,63.09
2023-02-09T08:08:56.401Z,62.52
2023-02-09T08:11:53.241Z,62.64
2023-02-09T08:14:48.420Z,63.05
2023-02-09T08:17:39.013Z,61.98
2023-02-09T08:20:31.891Z,61.67
2023-02-09T08:23:25.861Z,62.05
2023-02-09T08:26:16.108Z,61.75
2023-02-09T08:29:08.534Z,61.31
2023-02-09T08:31:57.859Z,62.01
2023-02-09T08:34:47.144Z,62.00
2023-02-09T08:37:36.335Z,61.31
2023-02-09T08:40:25.560Z,61.79
2023-02-09T08:43:15.228Z,61.73
2023-02-09T08:46:07.893Z,60.89
2023-02-09T08:48:57.306Z,60.69
2023-02-09T08:51:46.457Z,60.25
2023-02-09T08:54:35.861Z,59.69
2023-02-09T08:57:38.166Z,59.36
2023-02-09T09:00:32.361Z,59.68
2023-02-09T09:03:22.968Z,58.88
2023-02-09T09:06:13.345Z,58.91
2023-02-09T09:09:02.577Z,58.59
2023-02-09T09:11:51.884Z,58.51
2023-02-09T09:14:41.818Z,58.21
2023-02-09T09:17:31.291Z,58.24
2023-02-09T09:20:22.805Z,57.96
2023-02-09T09:23:12.451Z,58.31
2023-02-09T09:26:02.969Z,58.51
2023-02-09T09:28:52.626Z,58.00
2023-02-09T09:31:41.960Z,58.29
2023-02-09T09:34:31.405Z,58.39
2023-02-09T09:37:22.444Z,57.94
2023-02-09T09:40:18.294Z,57.67
2023-02-09T09:43:15.946Z,58.04
2023-02-09T09:46:08.054Z,57.84
2023-02-09T09:48:59.413Z,57.44
2023-02-09T09:51:51.800Z,56.98
2023-02-09T09:54:43.840Z,56.83
2023-02-09T09:57:38.272Z,56.34
2023-02-09T10:00:29.976Z,56.77
2023-02-09T10:03:22.038Z,56.16
2023-02-09T10:06:18.370Z,55.67
2023-02-09T10:09:23.508Z,56.41
2023-02-09T10:12:33.697Z,55.72
2023-02-09T10:15:29.829Z,55.94
2023-02-09T10:18:25.431Z,56.27
2023-02-09T10:21:17.369Z,55.89
2023-02-09T10:24:16.551Z,55.39
2023-02-09T10:27:16.269Z,54.94
2023-02-09T10:30:28.136Z,55.00
2023-02-09T10:33:17.928Z,54.66
2023-02-09T10:36:09.829Z,54.98
2023-02-09T10:39:18.567Z,54.86
2023-02-09T10:42:20.953Z,54.63
2023-02-09T10:45:22.474Z,54.48
2023-02-09T10:48:20.071Z,54.90
2023-02-09T10:51:15.214Z,54.18
2023-02-09T10:54:08.128Z,54.87
2023-02-09T10:56:57.418Z,54.62
2023-02-09T10:59:53.866Z,54.80
2023-02-09T11:02:51.542Z,55.10
2023-02-09T11:05:42.192Z,54.93
2023-02-09T11:08:44.639Z,54.39
2023-02-09T11:11:37.765Z,54.70
2023-02-09T11:14:27.290Z,54.60
2023-02-09T11:17:23.314Z,54.63
2023-02-09T11:20:29.009Z,53.85
2023-02-09T11:23:50.080Z,54.15
2023-02-09T11:26:50.299Z,50.92
2023-02-09T11:29:47.561Z,51.59
2023-02-09T11:32:40.462Z,50.58
2023-02-09T11:35:44.249Z,47.90
2023-02-09T11:38:41.369Z,45.28
2023-02-09T11:41:51.880Z,43.54
2023-02-09T11:44:49.187Z,42.79
2023-02-09T11:47:53.130Z,39.49
2023-02-09T11:50:55.493Z,39.54
2023-02-09T11:53:54.780Z,39.22
2023-02-09T11:56:50.486Z,38.96
2023-02-09T11:59:44.577Z,37.92
2023-02-09T12:02:47.578Z,38.50
2023-02-09T12:05:37.276Z,38.49
2023-02-09T12:08:46.642Z,36.69
2023-02-09T12:11:47.343Z,37.56
2023-02-09T12:15:04.274Z,36.91
2023-02-09T12:17:58.486Z,36.90
2023-02-09T12:20:54.525Z,37.37
2023-02-09T12:23:46.723Z,38.04
2023-02-09T12:26:45.971Z,37.52
2023-02-09T12:29:39.650Z,38.17
2023-02-09T12:32:44.665Z,38.69
2023-02-09T12:35:41.478Z,39.58
2023-02-09T12:39:07.389Z,39.62
2023-02-09T12:42:28.681Z,40.44
2023-02-09T12:45:37.404Z,40.48
2023-02-09T12:48:26.648Z,40.52
2023-02-09T12:51:48.706Z,41.31
2023-02-09T12:54:43.178Z,41.04
2023-02-09T12:57:54.848Z,41.62
2023-02-09T13:00:57.189Z,41.46
2023-02-09T13:03:57.591Z,41.70
2023-02-09T13:06:52.875Z,41.87
2023-02-09T13:09:43.798Z,42.77
2023-02-09T13:12:40.410Z,43.15
2023-02-09T13:15:47.385Z,43.22
2023-02-09T13:18:47.565Z,43.49
2023-02-09T13:21:50.081Z,43.63
2023-02-09T13:24:48.913Z,43.78
2023-02-09T13:27:49.184Z,43.62
2023-02-09T13:30:40.072Z,44.24
2023-02-09T13:33:44.451Z,43.99
2023-02-09T13:36:43.299Z,44.21
2023-02-09T13:39:38.835Z,43.41
2023-02-09T13:42:31.567Z,43.55
2023-02-09T13:45:21.431Z,43.82
2023-02-09T13:48:24.649Z,43.64
2023-02-09T13:51:18.810Z,43.88
2023-02-09T13:54:08.256Z,43.97
2023-02-09T13:56:57.501Z,44.68
2023-02-09T13:59:46.928Z,44.61
2023-02-09T14:02:38.094Z,44.64
2023-02-09T14:05:40.990Z,44.81
2023-02-09T14:08:33.437Z,44.63
2023-02-09T14:11:41.872Z,44.82
2023-02-09T14:14:49.337Z,44.79
2023-02-09T14:17:39.096Z,45.24
2023-02-09T14:20:28.764Z,44.78
2023-02-09T14:23:19.544Z,44.33
2023-02-09T14:26:23.603Z,44.63
2023-02-09T14:29:18.216Z,44.51
2023-02-09T14:32:32.439Z,44.59
2023-02-09T14:35:25.835Z,45.06
2023-02-09T14:38:39.521Z,45.42
2023-02-09T14:41:30.753Z,45.80
2023-02-09T14:44:22.350Z,46.82
2023-02-09T14:47:30.626Z,47.39
2023-02-09T14:50:23.535Z,48.25
2023-02-09T14:53:16.081Z,48.89
2023-02-09T14:56:07.660Z,49.80
2023-02-09T14:58:56.894Z,49.82
2023-02-09T15:01:46.547Z,50.47
2023-02-09T15:04:35.801Z,50.47
2023-02-09T15:07:35.089Z,51.04
2023-02-09T15:10:29.023Z,51.08
2023-02-09T15:13:19.568Z,51.30
2023-02-09T15:16:10.866Z,50.91
2023-02-09T15:19:00.490Z,50.65
2023-02-09T15:22:02.032Z,49.39
2023-02-09T15:24:56.068Z,47.91
2023-02-09T15:27:51.650Z,47.95
2023-02-09T15:30:42.321Z,47.61
2023-02-09T15:33:31.591Z,46.96
2023-02-09T15:36:22.269Z,46.89
2023-02-09T15:39:19.854Z,46.64
2023-02-09T15:42:33.961Z,46.46
2023-02-09T15:45:44.498Z,46.57
2023-02-09T15:48:36.355Z,46.74
2023-02-09T15:51:27.075Z,47.64
2023-02-09T15:54:19.665Z,47.77
2023-02-09T15:57:13.415Z,48.78
2023-02-09T16:00:02.641Z,49.18
2023-02-09T16:02:56.147Z,49.28
2023-02-09T16:05:49.749Z,49.52
2023-02-09T16:08:39.105Z,50.39
2023-02-09T16:11:33.031Z,50.72
2023-02-09T16:14:25.403Z,51.51
2023-02-09T16:17:14.582Z,52.08
2023-02-09T16:20:03.793Z,52.41
2023-02-09T16:22:55.836Z,52.91
2023-02-09T16:25:47.101Z,53.51
2023-02-09T16:28:36.395Z,53.92
2023-02-09T16:31:26.426Z,54.17
2023-02-09T16:34:16.309Z,54.04
2023-02-09T16:37:05.970Z,54.41
2023-02-09T16:39:58.134Z,54.51
2023-02-09T16:42:48.655Z,54.31
2023-02-09T16:45:43.167Z,54.45
2023-02-09T16:48:36.113Z,54.63
2023-02-09T16:51:25.617Z,54.63
2023-02-09T16:54:14.878Z,54.40
2023-02-09T16:57:05.756Z,54.66
2023-02-09T16:59:55.992Z,54.51
2023-02-09T17:02:50.320Z,54.37
2023-02-09T17:05:39.572Z,54.37
2023-02-09T17:08:32.193Z,54.08
2023-02-09T17:11:24.058Z,54.18
2023-02-09T17:14:14.759Z,54.22
2023-02-09T17:17:04.201Z,54.29
2023-02-09T17:19:55.387Z,54.18
2023-02-09T17:22:44.702Z,54.55
2023-02-09T17:25:34.070Z,54.39
2023-02-09T17:28:24.193Z,54.37
2023-02-09T17:31:20.595Z,54.80
2023-02-09T17:34:14.114Z,54.45
2023-02-09T17:37:03.884Z,54.44
2023-02-09T17:39:53.230Z,54.63
2023-02-09T17:42:43.148Z,54.65
2023-02-09T17:45:35.212Z,54.62
2023-02-09T17:48:26.085Z,54.66
2023-02-09T17:51:21.545Z,54.58
2023-02-09T17:54:16.008Z,54.47
2023-02-09T17:57:05.717Z,54.70
2023-02-09T17:59:54.974Z,54.84
2023-02-09T18:02:44.559Z,54.92
2023-02-09T18:05:38.535Z,55.02
2023-02-09T18:08:28.417Z,55.19
2023-02-09T18:11:18.016Z,55.28
2023-02-09T18:14:07.287Z,55.14
2023-02-09T18:16:56.965Z,55.55
2023-02-09T18:19:46.360Z,55.62
2023-02-09T18:22:36.901Z,55.33
2023-02-09T18:25:32.038Z,55.41
2023-02-09T18:28:21.295Z,55.59
2023-02-09T18:31:15.612Z,55.60
2023-02-09T18:34:04.924Z,55.59
2023-02-09T18:36:54.421Z,55.34
2023-02-09T18:39:46.863Z,55.41
2023-02-09T18:42:36.252Z,55.49
2023-02-09T18:45:26.099Z,55.47
2023-02-09T18:48:15.322Z,55.46
2023-02-09T18:51:07.703Z,55.12
2023-02-09T18:53:58.091Z,55.37
2023-02-09T18:56:48.705Z,55.47
2023-02-09T18:59:38.520Z,55.19
2023-02-09T19:02:28.015Z,55.20
2023-02-09T19:05:19.548Z,55.10
2023-02-09T19:08:08.816Z,55.21
2023-02-09T19:10:58.026Z,55.49
2023-02-09T19:14:08.942Z,55.29
2023-02-09T19:16:58.146Z,55.60
2023-02-09T19:19:48.485Z,55.68
2023-02-09T19:22:38.764Z,55.60
2023-02-09T19:25:29.951Z,55.80
2023-02-09T19:28:19.228Z,55.67
2023-02-09T19:31:18.892Z,55.75
2023-02-09T19:34:08.270Z,55.88
2023-02-09T19:36:57.475Z,55.65
2023-02-09T19:39:52.968Z,55.97
2023-02-09T19:42:42.439Z,55.92
2023-02-09T19:45:36.589Z,56.04
2023-02-09T19:48:27.211Z,55.85
2023-02-09T19:51:16.770Z,56.27
2023-02-09T19:54:06.517Z,56.53
2023-02-09T19:56:55.744Z,56.90
2023-02-09T19:59:45.003Z,56.75
2023-02-09T20:02:34.350Z,56.65
2023-02-09T20:05:25.031Z,56.91
2023-02-09T20:08:18.318Z,57.50
2023-02-09T20:11:08.822Z,57.58
2023-02-09T20:13:58.092Z,57.63
2023-02-09T20:16:47.353Z,57.63
2023-02-09T20:19:37.445Z,57.80
2023-02-09T20:22:28.152Z,57.97
2023-02-09T20:25:18.227Z,57.87
2023-02-09T20:28:07.672Z,57.83
2023-02-09T20:30:56.900Z,58.06
2023-02-09T20:33:46.209Z,58.03
2023-02-09T20:36:38.035Z,57.88
2023-02-09T20:39:28.868Z,58.00
2023-02-09T20:42:35.401Z,57.98
2023-02-09T20:45:42.486Z,57.76
2023-02-09T20:48:32.253Z,57.79
2023-02-09T20:51:21.462Z,57.87
2023-02-09T20:54:10.708Z,57.57
2023-02-09T20:57:01.700Z,57.52
2023-02-09T20:59:51.176Z,57.29
2023-02-09T21:02:40.651Z,57.57
2023-02-09T21:05:30.619Z,57.49
2023-02-09T21:08:20.820Z,57.41
2023-02-09T21:11:10.870Z,57.52
2023-02-09T21:14:02.385Z,57.31
2023-02-09T21:16:55.511Z,57.61
2023-02-09T21:19:44.661Z,57.40
2023-02-09T21:22:33.893Z,57.88
2023-02-09T21:25:23.139Z,57.95
2023-02-09T21:28:12.976Z,57.61
2023-02-09T21:31:04.094Z,57.94
2023-02-09T21:33:53.479Z,57.91
2023-02-09T21:36:42.924Z,57.98
2023-02-09T21:39:32.338Z,57.89
2023-02-09T21:42:28.511Z,57.94
2023-02-09T21:45:17.934Z,58.30
2023-02-09T21:48:08.699Z,57.92
2023-02-09T21:50:58.244Z,57.87
2023-02-09T21:53:47.855Z,58.35
2023-02-09T21:56:37.111Z,58.32
2023-02-09T21:59:26.358Z,58.66
2023-02-09T22:02:18.026Z,58.98
2023-02-09T22:05:10.066Z,59.05
2023-02-09T22:07:59.258Z,58.79
2023-02-09T22:10:50.759Z,58.85
2023-02-09T22:13:40.477Z,59.28
2023-02-09T22:16:30.198Z,59.10
2023-02-09T22:19:19.529Z,59.57
2023-02-09T22:22:11.188Z,59.78
2023-02-09T22:25:00.856Z,59.44
2023-02-09T22:27:50.147Z,59.68
2023-02-09T22:30:39.441Z,59.87
2023-02-09T22:33:28.695Z,60.52
2023-02-09T22:36:20.382Z,60.81
2023-02-09T22:39:11.169Z,60.36
2023-02-09T22:42:01.124Z,60.60
2023-02-09T22:44:50.551Z,60.27
2023-02-09T22:47:40.376Z,60.88
2023-02-09T22:50:29.579Z,60.62
2023-02-09T22:53:18.848Z,60.79
2023-02-09T22:56:09.983Z,60.69
2023-02-09T22:59:01.921Z,60.95
2023-02-09T23:01:51.166Z,61.77
2023-02-09T23:04:40.653Z,61.40
2023-02-09T23:07:29.933Z,61.53
2023-02-09T23:10:20.138Z,61.94
2023-02-09T23:13:10.779Z,61.55
2023-02-09T23:16:10.056Z,61.72
2023-02-09T23:19:01.888Z,61.70
2023-02-09T23:21:53.006Z,61.35
2023-02-09T23:24:42.355Z,62.08
2023-02-09T23:27:31.556Z,61.84
2023-02-09T23:30:22.290Z,61.59
2023-02-09T23:33:11.517Z,61.61
2023-02-09T23:36:03.508Z,61.23
2023-02-09T23:38:55.659Z,61.90
2023-02-09T23:41:45.398Z,61.69
2023-02-09T23:44:34.735Z,62.26
2023-02-09T23:47:25.509Z,61.74
2023-02-09T23:50:15.012Z,61.92
2023-02-09T23:53:04.295Z,61.76
2023-02-09T23:55:53.900Z,61.58
2023-02-09T23:58:47.661Z,61.69
